»·PEaware :: N377AM KBFL-KSAC

N377AM :: KBFL-KSAC

FLIGHT INFORMATION

Flight Status: Arrived
Operator: Privately registered:
United States
More flights under this callsign
Pilot: Andrew M. (139)
Aircraft: SOCATA TBM-900
(TBM9)
More flights by this aircraft type
Origin: KBFL Meadows
United States
Destination: KSAC Sacramento Executive
United States
More flights between these airports :: More routes between these airports
Route: EHF V23 SAC
File this flight plan on PilotEdge
Remarks:
Altitude:
(Current/Filed)
22,000ft
Speed:
(Current/Filed)
300kts
Departed: 06-Feb-19 03:55 PM
Arrived: 06-Feb-19 05:18 PM
Distance/Time
Traveled:
219nm/1:23
Distance/Time
To Go:
Arrived

Flight Plot

Page will automatically refresh every two minutes.

Flight plan parsing failed; only flown route is shown


Map Options




Map Legend


Flown Route
Filed Route
Departure Airport
Arrival Airport
Navaid (VOR, NDB)
Fix

Horizontal Profiles

Position Reports

Time Latitude Longitude Heading Altitude Ground
Speed
06-Feb-19 15:36 35.426204 -119.042681 179 484ft 0kts
06-Feb-19 15:37 35.426204 -119.042681 179 484ft 0kts
06-Feb-19 15:38 35.426204 -119.042681 179 484ft 0kts
06-Feb-19 15:39 35.426204 -119.042681 179 484ft 0kts
06-Feb-19 15:40 35.426204 -119.042681 179 484ft 0kts
06-Feb-19 15:41 35.426204 -119.042681 179 484ft 0kts
06-Feb-19 15:42 35.426204 -119.042681 179 484ft 0kts
06-Feb-19 15:43 35.426204 -119.042681 179 484ft 0kts
06-Feb-19 15:44 35.426204 -119.042681 179 484ft 0kts
06-Feb-19 15:45 35.426203 -119.042681 179 484ft 0kts
06-Feb-19 15:46 35.426203 -119.042681 179 484ft 0kts
06-Feb-19 15:47 35.426203 -119.042681 179 484ft 0kts
06-Feb-19 15:47 35.426203 -119.042681 179 484ft 0kts
06-Feb-19 15:49 35.425650 -119.043457 265 481ft 7kts
06-Feb-19 15:50 35.425599 -119.044674 265 478ft 0kts
06-Feb-19 15:50 35.425600 -119.044674 265 478ft 0kts
06-Feb-19 15:51 35.425599 -119.044674 265 478ft 0kts
06-Feb-19 15:52 35.425600 -119.044674 265 479ft 0kts
06-Feb-19 15:53 35.425528 -119.045890 277 476ft 12kts
06-Feb-19 15:54 35.440937 -119.065441 313 1444ft 118kts
06-Feb-19 15:55 35.466656 -119.093268 321 3305ft 152kts
06-Feb-19 15:56 35.502799 -119.109151 346 5439ft 141kts
06-Feb-19 15:57 35.539429 -119.125002 337 7697ft 141kts
06-Feb-19 15:58 35.574342 -119.142513 336 9802ft 138kts
06-Feb-19 15:59 35.606969 -119.158940 336 11846ft 125kts
06-Feb-19 16:00 35.637991 -119.174609 336 13819ft 121kts
06-Feb-19 16:01 35.668405 -119.189964 336 15771ft 121kts
06-Feb-19 16:02 35.698249 -119.205043 336 17909ft 116kts
06-Feb-19 16:03 35.727999 -119.220138 337 19663ft 118kts
06-Feb-19 16:04 35.758825 -119.235637 337 21578ft 122kts
06-Feb-19 16:05 35.794349 -119.253447 337 22258ft 165kts
06-Feb-19 16:06 35.838166 -119.275643 337 22229ft 174kts
06-Feb-19 16:07 35.881615 -119.297827 337 22227ft 170kts
06-Feb-19 16:08 35.924553 -119.319774 337 22225ft 170kts
06-Feb-19 16:09 35.968212 -119.342116 337 22229ft 174kts
06-Feb-19 16:10 36.011046 -119.363895 331 22248ft 184kts
06-Feb-19 16:11 36.057175 -119.387777 331 22236ft 192kts
06-Feb-19 16:12 36.101710 -119.410655 332 22237ft 192kts
06-Feb-19 16:13 36.148393 -119.434470 332 22247ft 194kts
06-Feb-19 16:14 36.199541 -119.460626 332 22246ft 195kts
06-Feb-19 16:15 36.248780 -119.485764 331 22248ft 197kts
06-Feb-19 16:16 36.295053 -119.509605 331 22245ft 199kts
06-Feb-19 16:17 36.341964 -119.533700 332 22244ft 202kts
06-Feb-19 16:18 36.389621 -119.558227 332 22243ft 202kts
06-Feb-19 16:19 36.440697 -119.584574 332 22242ft 202kts
06-Feb-19 16:20 36.492005 -119.611089 332 22241ft 202kts
06-Feb-19 16:21 36.537861 -119.634758 332 22234ft 195kts
06-Feb-19 16:22 36.578534 -119.655852 331 22243ft 192kts
06-Feb-19 16:23 36.620073 -119.677397 331 22249ft 192kts
06-Feb-19 16:24 36.661576 -119.698968 331 22240ft 193kts
06-Feb-19 16:25 36.702378 -119.720189 331 22238ft 193kts
06-Feb-19 16:26 36.745773 -119.742811 331 21401ft 193kts
06-Feb-19 16:27 36.787883 -119.764807 332 20231ft 190kts
06-Feb-19 16:28 36.829428 -119.786489 332 20235ft 187kts
06-Feb-19 16:29 36.876297 -119.810961 332 20234ft 186kts
06-Feb-19 16:30 36.915796 -119.846132 320 20234ft 184kts
06-Feb-19 16:31 36.953580 -119.883001 320 20233ft 183kts
06-Feb-19 16:32 36.991179 -119.919873 320 20232ft 182kts
06-Feb-19 16:33 37.026900 -119.954958 320 20231ft 182kts
06-Feb-19 16:34 37.060030 -119.987541 320 20231ft 182kts
06-Feb-19 16:35 37.094679 -120.021613 320 20232ft 182kts
06-Feb-19 16:36 37.129162 -120.055617 320 20242ft 184kts
06-Feb-19 16:37 37.165307 -120.091370 320 20223ft 187kts
06-Feb-19 16:38 37.200662 -120.126314 320 20213ft 184kts
06-Feb-19 16:39 37.236575 -120.161821 320 20214ft 183kts
06-Feb-19 16:40 37.271856 -120.196645 320 20224ft 186kts
06-Feb-19 16:41 37.306454 -120.231005 320 20244ft 185kts
06-Feb-19 16:42 37.341159 -120.265532 320 20245ft 181kts
06-Feb-19 16:43 37.376129 -120.300334 320 20247ft 180kts
06-Feb-19 16:44 37.409899 -120.333986 320 20245ft 179kts
06-Feb-19 16:45 37.443181 -120.367166 320 20244ft 178kts
06-Feb-19 16:46 37.476634 -120.400522 320 20244ft 178kts
06-Feb-19 16:47 37.511990 -120.435817 320 20243ft 178kts
06-Feb-19 16:48 37.546168 -120.469979 320 20242ft 178kts
06-Feb-19 16:49 37.580879 -120.504748 320 20242ft 178kts
06-Feb-19 16:50 37.617236 -120.541139 320 20245ft 180kts
06-Feb-19 16:51 37.654935 -120.579035 320 19990ft 192kts
06-Feb-19 16:52 37.696116 -120.620527 321 18843ft 198kts
06-Feb-19 16:53 37.737496 -120.662196 320 17838ft 195kts
06-Feb-19 16:54 37.783170 -120.708079 320 16683ft 190kts
06-Feb-19 16:55 37.827380 -120.752797 320 15592ft 189kts
06-Feb-19 16:56 37.866015 -120.791921 321 14639ft 189kts
06-Feb-19 16:57 37.902319 -120.828827 322 13735ft 188kts
06-Feb-19 16:58 37.939105 -120.866121 323 12805ft 186kts
06-Feb-19 16:59 37.976294 -120.903824 323 11862ft 187kts
06-Feb-19 17:00 38.013510 -120.941623 323 10931ft 192kts
06-Feb-19 17:01 38.047607 -120.976333 322 10071ft 190kts
06-Feb-19 17:02 38.079068 -121.010780 312 9256ft 192kts
06-Feb-19 17:03 38.105226 -121.048962 311 8500ft 192kts
06-Feb-19 17:04 38.136452 -121.095019 310 7638ft 195kts
06-Feb-19 17:05 38.170324 -121.145052 310 6673ft 189kts
06-Feb-19 17:06 38.207920 -121.200698 310 5577ft 183kts
06-Feb-19 17:07 38.251276 -121.235807 333 4539ft 188kts
06-Feb-19 17:08 38.298329 -121.264533 333 3994ft 184kts
06-Feb-19 17:09 38.344592 -121.292823 333 4000ft 180kts
06-Feb-19 17:10 38.391161 -121.321264 333 4008ft 179kts
06-Feb-19 17:11 38.435612 -121.348433 333 3433ft 190kts
06-Feb-19 17:12 38.479431 -121.375588 332 2249ft 170kts
06-Feb-19 17:13 38.510043 -121.406297 320 1447ft 120kts
06-Feb-19 17:14 38.527865 -121.433031 296 989ft 103kts
06-Feb-19 17:15 38.537978 -121.459887 286 820ft 89kts
06-Feb-19 17:16 38.527406 -121.482256 212 376ft 86kts
06-Feb-19 17:17 38.510895 -121.496102 208 20ft 29kts
06-Feb-19 17:18 38.508731 -121.499007 306 17ft 1kts
06-Feb-19 17:19 38.509170 -121.499155 34 18ft 9kts
06-Feb-19 17:20 38.511520 -121.497815 319 20ft 9kts
06-Feb-19 17:21 38.513069 -121.497850 8 19ft 0kts
06-Feb-19 17:22 38.513069 -121.497850 8 19ft 0kts

Navigation Log

Ident Type
Flight plan parsing failed, navigation log unavailable